Time;durP1;ratioP1;P1;durP2;ratioP2;P2;SDS_P1;SDS_P2;PMS_P1;PMS_P2;Temp;Humidity;BMP_temperature;BMP_pressure;BME280_temperature;BME280_humidity;BME280_pressure;Samples;Min_cycle;Max_cycle;Signal;HPM_P1;HPM_P2
2022/05/27 00:00:57;;;;;;;11.77;4.47;;;18.60;72.30;;;;;;5048285;28;20230;-89
2022/05/27 00:03:24;;;;;;;13.13;4.00;;;18.60;72.20;;;;;;5050302;28;20643;-89
2022/05/27 00:05:52;;;;;;;15.23;5.03;;;18.60;72.20;;;;;;5035636;28;20727;-90
2022/05/27 00:08:22;;;;;;;15.63;5.00;;;18.60;72.20;;;;;;5043707;28;20221;-89
2022/05/27 00:10:49;;;;;;;14.00;4.57;;;18.60;72.50;;;;;;5050281;28;20245;-91
2022/05/27 00:13:17;;;;;;;15.43;3.50;;;18.60;72.60;;;;;;5050430;28;20228;-90
2022/05/27 00:15:45;;;;;;;14.87;4.63;;;18.60;72.20;;;;;;5053647;28;20218;-88
2022/05/27 00:18:12;;;;;;;14.37;4.07;;;18.60;72.50;;;;;;5055033;28;20273;-91
2022/05/27 00:20:42;;;;;;;14.40;5.07;;;18.60;72.30;;;;;;5057356;28;20216;-91
2022/05/27 00:23:09;;;;;;;14.30;4.37;;;18.60;72.60;;;;;;5044080;28;20333;-89
2022/05/27 00:25:39;;;;;;;12.70;4.53;;;18.60;72.50;;;;;;5038192;28;20677;-92
2022/05/27 00:28:07;;;;;;;16.10;4.37;;;18.60;72.60;;;;;;5049217;28;20215;-91
2022/05/27 00:30:34;;;;;;;15.40;4.77;;;18.60;72.70;;;;;;5049728;28;20255;-89
2022/05/27 00:33:01;;;;;;;16.03;4.70;;;18.60;72.50;;;;;;5057134;28;20702;-89
2022/05/27 00:35:29;;;;;;;23.70;6.77;;;18.60;72.60;;;;;;5055006;28;20743;-90
2022/05/27 00:37:57;;;;;;;11.87;3.80;;;18.60;73.10;;;;;;5050674;28;20276;-90
2022/05/27 00:40:26;;;;;;;14.37;4.20;;;18.60;73.10;;;;;;5056849;28;20223;-90
2022/05/27 00:42:54;;;;;;;13.30;4.70;;;18.60;73.20;;;;;;5055531;28;20302;-89
2022/05/27 00:45:24;;;;;;;14.33;4.80;;;18.60;73.40;;;;;;5054228;28;20299;-91
2022/05/27 00:47:55;;;;;;;17.33;4.43;;;18.60;73.50;;;;;;5047022;28;20232;-91
2022/05/27 00:50:26;;;;;;;12.57;4.23;;;18.60;73.60;;;;;;5045411;28;20278;-89
2022/05/27 00:52:54;;;;;;;16.30;4.60;;;18.60;73.60;;;;;;5051132;28;20775;-90
2022/05/27 00:55:24;;;;;;;11.90;4.10;;;18.60;73.50;;;;;;5055548;28;20220;-91
2022/05/27 00:57:57;;;;;;;14.57;4.67;;;18.60;74.00;;;;;;5054667;28;20243;-91
2022/05/27 01:00:29;;;;;;;17.10;5.33;;;18.60;73.90;;;;;;5049473;28;20246;-89
2022/05/27 01:02:57;;;;;;;15.40;5.03;;;18.60;74.10;;;;;;5054123;28;20313;-88
2022/05/27 01:05:25;;;;;;;16.47;4.83;;;18.60;73.90;;;;;;5048091;28;20291;-91
2022/05/27 01:07:54;;;;;;;15.83;4.77;;;18.60;74.00;;;;;;5049683;28;20215;-89
2022/05/27 01:10:24;;;;;;;17.00;5.43;;;18.60;74.00;;;;;;5042386;28;20222;-90
2022/05/27 01:13:03;;;;;;;15.83;5.37;;;18.60;74.20;;;;;;5054449;28;20310;-90
2022/05/27 01:15:39;;;;;;;17.20;5.73;;;18.60;74.90;;;;;;5049000;28;20216;-88
2022/05/27 01:18:23;;;;;;;14.20;4.73;;;18.60;75.40;;;;;;5051244;28;20262;-90
2022/05/27 01:20:58;;;;;;;18.97;5.20;;;18.70;75.00;;;;;;5045540;28;20208;-90
2022/05/27 01:23:55;;;;;;;19.97;6.20;;;18.60;74.80;;;;;;5049185;28;20211;-91
2022/05/27 01:26:48;;;;;;;19.03;6.03;;;18.60;75.20;;;;;;5053288;28;20220;-90
2022/05/27 01:29:40;;;;;;;18.07;5.60;;;18.60;75.00;;;;;;5047757;28;20778;-90
2022/05/27 01:35:14;;;;;;;19.00;5.87;;;18.60;75.70;;;;;;5102693;27;20910;-91
2022/05/27 01:37:49;;;;;;;19.17;5.17;;;18.70;75.20;;;;;;5085803;28;20251;-90
2022/05/27 01:40:27;;;;;;;20.43;5.07;;;18.70;75.30;;;;;;5083558;28;20202;-89
2022/05/27 01:43:01;;;;;;;17.43;5.10;;;18.70;75.40;;;;;;5074351;28;20568;-90
2022/05/27 01:45:46;;;;;;;25.63;6.87;;;18.70;75.10;;;;;;5081374;28;20210;-90
2022/05/27 01:48:19;;;;;;;15.33;5.40;;;18.70;75.20;;;;;;5079638;28;20294;-90
2022/05/27 01:50:55;;;;;;;20.83;5.90;;;18.70;75.40;;;;;;5079155;28;20255;-92
2022/05/27 01:53:27;;;;;;;21.63;6.57;;;18.70;75.60;;;;;;5086289;28;20256;-90
2022/05/27 01:56:00;;;;;;;15.83;4.60;;;18.70;75.50;;;;;;5085851;28;20262;-90
2022/05/27 01:58:33;;;;;;;16.17;5.40;;;18.70;75.60;;;;;;5085228;28;20226;-89
2022/05/27 02:01:00;;;;;;;19.10;5.83;;;18.70;75.60;;;;;;5087898;28;20653;-91
2022/05/27 02:03:31;;;;;;;23.50;7.13;;;18.70;75.40;;;;;;5089044;28;20545;-90
2022/05/27 02:06:05;;;;;;;11.83;4.10;;;18.70;75.60;;;;;;5090661;28;21065;-91
2022/05/27 02:08:36;;;;;;;20.30;5.97;;;18.70;76.00;;;;;;5087884;28;21700;-89
2022/05/27 02:11:06;;;;;;;15.50;5.10;;;18.70;75.90;;;;;;5088847;28;20703;-89
2022/05/27 02:13:38;;;;;;;20.53;6.10;;;18.70;76.20;;;;;;5083639;28;20328;-92
2022/05/27 02:16:06;;;;;;;17.97;5.33;;;18.70;76.30;;;;;;5085834;28;20211;-89
2022/05/27 02:18:39;;;;;;;21.20;6.17;;;18.70;76.30;;;;;;5086587;28;20708;-89
2022/05/27 02:21:13;;;;;;;17.70;4.83;;;18.70;76.40;;;;;;5089074;28;20222;-91
2022/05/27 02:23:46;;;;;;;22.17;6.30;;;18.70;76.90;;;;;;5086419;28;20230;-90
2022/05/27 02:26:17;;;;;;;21.73;5.80;;;18.70;76.70;;;;;;5076992;28;20206;-89
2022/05/27 02:28:46;;;;;;;14.80;5.33;;;18.70;76.70;;;;;;5083728;28;20321;-90
2022/05/27 02:31:17;;;;;;;16.63;5.07;;;18.70;76.80;;;;;;5072897;28;20227;-89
2022/05/27 02:36:38;;;;;;;20.90;6.30;;;18.70;77.20;;;;;;5107065;28;20192;-89
2022/05/27 02:39:07;;;;;;;15.20;5.07;;;18.70;77.50;;;;;;5067662;28;20217;-90
2022/05/27 02:41:42;;;;;;;15.40;4.90;;;18.70;78.10;;;;;;5081893;28;20212;-89
2022/05/27 02:44:22;;;;;;;16.13;5.17;;;18.70;78.30;;;;;;5084392;28;20245;-88
2022/05/27 02:46:54;;;;;;;19.83;5.70;;;18.70;79.00;;;;;;5072721;28;20560;-89
2022/05/27 02:49:28;;;;;;;20.87;6.10;;;18.70;78.70;;;;;;5070080;28;20207;-92
2022/05/27 02:52:09;;;;;;;21.80;5.77;;;18.80;79.60;;;;;;5072814;28;20309;-89
2022/05/27 02:54:46;;;;;;;14.57;4.97;;;18.70;80.00;;;;;;5071281;28;20317;-89
2022/05/27 02:57:19;;;;;;;19.57;6.20;;;18.80;80.20;;;;;;5073111;28;20214;-90
2022/05/27 02:59:47;;;;;;;18.47;5.43;;;18.70;80.00;;;;;;5070081;28;20282;-88
2022/05/27 03:02:17;;;;;;;15.33;5.07;;;18.70;79.80;;;;;;5061253;28;20273;-91
2022/05/27 03:04:47;;;;;;;19.77;6.60;;;18.70;80.00;;;;;;5052875;28;20271;-88
2022/05/27 03:07:32;;;;;;;15.03;4.93;;;18.70;80.70;;;;;;5064065;28;20277;-89
2022/05/27 03:10:24;;;;;;;14.63;5.23;;;18.70;81.60;;;;;;5073626;28;20196;-89
2022/05/27 03:13:02;;;;;;;19.00;5.87;;;18.60;82.00;;;;;;5068657;28;20207;-89
2022/05/27 03:15:40;;;;;;;14.23;5.20;;;18.60;81.80;;;;;;5074386;28;20279;-91
2022/05/27 03:18:17;;;;;;;12.90;4.93;;;18.60;82.00;;;;;;5054891;28;20663;-91
2022/05/27 03:20:49;;;;;;;16.57;5.73;;;18.60;82.00;;;;;;5055264;28;20199;-90
2022/05/27 03:23:40;;;;;;;17.60;5.20;;;18.60;81.80;;;;;;5071933;28;20207;-88
2022/05/27 03:26:28;;;;;;;21.20;6.93;;;18.60;82.80;;;;;;5073024;28;20604;-90
2022/05/27 03:29:08;;;;;;;15.47;5.37;;;18.60;83.10;;;;;;5064316;28;20223;-89
2022/05/27 03:31:40;;;;;;;11.60;3.80;;;18.60;82.60;;;;;;5055601;28;22561;-90
2022/05/27 03:34:16;;;;;;;18.13;5.67;;;18.60;82.20;;;;;;5070409;28;20715;-89
2022/05/27 03:36:48;;;;;;;12.20;4.23;;;18.60;82.80;;;;;;5072629;28;20206;-91
2022/05/27 03:39:28;;;;;;;16.63;4.37;;;18.70;82.70;;;;;;5071638;28;20236;-89
2022/05/27 03:41:58;;;;;;;18.33;5.17;;;18.70;83.40;;;;;;5068711;28;20252;-89
2022/05/27 03:44:27;;;;;;;15.47;5.00;;;18.70;82.70;;;;;;5071023;28;21001;-90
2022/05/27 03:46:55;;;;;;;15.33;4.47;;;18.70;82.60;;;;;;5061142;28;20212;-89
2022/05/27 03:49:23;;;;;;;20.57;4.90;;;18.70;83.00;;;;;;5071335;28;20252;-89
2022/05/27 03:51:55;;;;;;;18.07;5.77;;;18.70;83.50;;;;;;5073515;28;20260;-92
2022/05/27 03:54:25;;;;;;;20.67;6.23;;;18.70;83.60;;;;;;5070957;28;20226;-92
2022/05/27 03:56:53;;;;;;;24.83;7.37;;;18.70;83.50;;;;;;5056257;28;20227;-90
2022/05/27 03:59:21;;;;;;;13.97;5.13;;;18.70;84.00;;;;;;5070851;28;20200;-91
2022/05/27 04:01:51;;;;;;;15.70;5.33;;;18.70;83.80;;;;;;5073854;28;20199;-91
2022/05/27 04:04:22;;;;;;;23.47;6.50;;;18.80;83.50;;;;;;5074266;28;20211;-89
2022/05/27 04:06:50;;;;;;;25.20;6.83;;;18.80;83.00;;;;;;5072686;28;20195;-89
2022/05/27 04:09:18;;;;;;;16.07;4.87;;;18.80;83.50;;;;;;5054624;28;20196;-88
2022/05/27 04:11:48;;;;;;;11.27;4.10;;;18.80;83.20;;;;;;5060328;28;20274;-91
2022/05/27 04:14:17;;;;;;;16.37;5.03;;;18.80;83.50;;;;;;5074131;28;20463;-90
2022/05/27 04:16:44;;;;;;;21.37;6.07;;;18.80;83.70;;;;;;5075073;28;20206;-89
2022/05/27 04:19:11;;;;;;;20.07;6.00;;;18.80;83.50;;;;;;5075780;28;20688;-90
2022/05/27 04:21:41;;;;;;;24.50;6.97;;;18.80;83.10;;;;;;5071887;28;20663;-91
2022/05/27 04:24:09;;;;;;;16.33;5.93;;;18.80;83.40;;;;;;5052666;28;20215;-89
2022/05/27 04:26:37;;;;;;;19.57;5.70;;;18.80;83.90;;;;;;5055779;28;20593;-92
2022/05/27 04:29:08;;;;;;;18.43;5.73;;;18.80;83.80;;;;;;5071697;28;20214;-94
2022/05/27 04:31:35;;;;;;;10.97;3.80;;;18.90;83.80;;;;;;5066663;28;20203;-91
2022/05/27 04:34:06;;;;;;;10.63;4.17;;;18.90;83.40;;;;;;5068813;28;20226;-90
2022/05/27 04:36:34;;;;;;;15.07;4.37;;;18.90;83.30;;;;;;5063466;28;20214;-89
2022/05/27 04:39:01;;;;;;;14.97;4.03;;;18.90;83.20;;;;;;5066223;28;20235;-88
2022/05/27 04:41:31;;;;;;;12.90;3.30;;;18.90;83.00;;;;;;5067912;28;20287;-91
2022/05/27 04:43:58;;;;;;;10.93;3.23;;;18.90;82.80;;;;;;5051510;28;20200;-88
2022/05/27 04:46:27;;;;;;;18.20;5.50;;;18.90;82.50;;;;;;5061090;28;20212;-89
2022/05/27 04:48:54;;;;;;;12.80;3.90;;;18.90;82.40;;;;;;5074851;28;20203;-90
2022/05/27 04:51:21;;;;;;;16.67;5.73;;;18.90;82.20;;;;;;5072830;28;20203;-87
2022/05/27 04:53:51;;;;;;;12.37;3.83;;;18.90;82.30;;;;;;5074463;28;20195;-91
2022/05/27 04:56:21;;;;;;;10.77;3.70;;;18.90;82.20;;;;;;5063272;28;20237;-94
2022/05/27 04:58:48;;;;;;;11.37;3.43;;;18.90;82.30;;;;;;5080224;28;20215;-89
2022/05/27 05:01:16;;;;;;;17.63;5.27;;;18.90;81.60;;;;;;5071084;28;20184;-92
2022/05/27 05:03:44;;;;;;;10.57;3.67;;;18.90;81.70;;;;;;5066559;28;20264;-87
2022/05/27 05:06:12;;;;;;;19.40;5.83;;;18.90;81.80;;;;;;5069571;28;20233;-90
2022/05/27 05:08:40;;;;;;;13.03;4.07;;;18.90;81.60;;;;;;5053120;28;20199;-88
2022/05/27 05:11:07;;;;;;;18.03;6.20;;;18.90;81.80;;;;;;5068812;28;20588;-89
2022/05/27 05:13:35;;;;;;;9.30;4.13;;;18.90;82.10;;;;;;5057818;28;20613;-90
2022/05/27 05:16:04;;;;;;;10.13;3.50;;;18.90;82.40;;;;;;5054622;28;20309;-87
2022/05/27 05:18:31;;;;;;;10.83;3.73;;;18.90;82.40;;;;;;5071632;28;20242;-87
2022/05/27 05:21:01;;;;;;;12.43;4.03;;;18.90;83.00;;;;;;5072548;28;20195;-87
2022/05/27 05:23:28;;;;;;;10.00;4.00;;;19.00;82.70;;;;;;5066058;28;20279;-88
2022/05/27 05:25:57;;;;;;;10.47;3.33;;;19.00;82.20;;;;;;5070694;28;20252;-88
2022/05/27 05:28:25;;;;;;;15.13;4.37;;;19.00;82.00;;;;;;5068767;28;20202;-89
2022/05/27 05:30:53;;;;;;;13.77;3.93;;;19.00;81.80;;;;;;5071465;28;20203;-87
2022/05/27 05:33:20;;;;;;;17.83;5.83;;;19.10;81.80;;;;;;5068819;28;20716;-87
2022/05/27 05:35:47;;;;;;;11.83;4.30;;;19.10;81.70;;;;;;5060507;28;20242;-90
2022/05/27 05:38:16;;;;;;;8.33;3.57;;;19.10;81.80;;;;;;5051434;28;20228;-88
2022/05/27 05:40:44;;;;;;;10.43;3.43;;;19.10;81.50;;;;;;5059846;28;20215;-87
2022/05/27 05:43:14;;;;;;;12.93;4.10;;;19.10;81.50;;;;;;5070674;28;20212;-89
2022/05/27 05:45:41;;;;;;;6.83;2.47;;;19.10;81.50;;;;;;5075970;28;20219;-90
2022/05/27 05:48:09;;;;;;;10.53;3.43;;;19.10;80.60;;;;;;5072713;28;20225;-90
2022/05/27 05:50:36;;;;;;;10.87;3.53;;;19.10;80.80;;;;;;5057654;28;20212;-90
2022/05/27 05:53:04;;;;;;;6.00;2.97;;;19.20;81.10;;;;;;5075826;28;20211;-90
2022/05/27 05:55:35;;;;;;;9.07;3.47;;;19.20;80.80;;;;;;5072912;28;20271;-90
2022/05/27 05:58:04;;;;;;;7.50;2.90;;;19.20;80.90;;;;;;5069945;28;20211;-90
2022/05/27 06:00:31;;;;;;;9.43;3.37;;;19.20;80.80;;;;;;5055330;28;20219;-92
2022/05/27 06:02:59;;;;;;;9.17;3.03;;;19.20;80.40;;;;;;5056063;28;20243;-92
2022/05/27 06:05:29;;;;;;;6.67;2.97;;;19.30;80.60;;;;;;5066459;28;20211;-93
2022/05/27 06:07:56;;;;;;;8.33;2.93;;;19.30;80.60;;;;;;5069096;28;21105;-90
2022/05/27 06:10:24;;;;;;;9.70;4.10;;;19.30;80.60;;;;;;5071451;28;20304;-90
2022/05/27 06:12:53;;;;;;;11.00;3.60;;;19.30;80.60;;;;;;5066203;28;20746;-93
2022/05/27 06:15:20;;;;;;;10.40;3.63;;;19.30;80.20;;;;;;5051208;28;20315;-90
2022/05/27 06:17:47;;;;;;;11.10;3.73;;;19.30;80.70;;;;;;5048362;28;20302;-89
2022/05/27 06:20:14;;;;;;;16.30;5.40;;;19.30;79.80;;;;;;5059020;28;20795;-90
2022/05/27 06:22:41;;;;;;;10.63;4.40;;;19.40;79.40;;;;;;5061482;28;20762;-87
2022/05/27 06:25:12;;;;;;;10.20;3.07;;;19.40;79.10;;;;;;5056354;28;20214;-86
2022/05/27 06:27:39;;;;;;;10.23;3.80;;;19.40;79.10;;;;;;5071686;28;20753;-87
2022/05/27 06:35:38;;;;;;;14.07;4.50;;;19.40;78.90;;;;;;5066480;28;20280;-88
2022/05/27 06:38:06;;;;;;;9.67;3.53;;;19.40;78.80;;;;;;5052653;28;20208;-89
2022/05/27 06:40:33;;;;;;;13.33;5.00;;;19.40;78.50;;;;;;5062654;28;20203;-87
2022/05/27 06:43:00;;;;;;;9.53;3.13;;;19.40;78.50;;;;;;5066438;28;20217;-88
2022/05/27 06:45:28;;;;;;;10.47;3.67;;;19.40;78.90;;;;;;5069580;28;20211;-87
2022/05/27 06:47:55;;;;;;;17.50;6.03;;;19.40;78.90;;;;;;5064109;28;20216;-88
2022/05/27 06:50:22;;;;;;;8.47;3.53;;;19.40;78.70;;;;;;5059982;28;20212;-93
2022/05/27 06:52:50;;;;;;;11.87;3.70;;;19.50;78.70;;;;;;5070804;28;20306;-88
2022/05/27 06:55:17;;;;;;;8.97;3.93;;;19.50;78.30;;;;;;5071323;28;20258;-93
2022/05/27 06:57:44;;;;;;;8.60;3.77;;;19.50;77.70;;;;;;5070020;28;20649;-91
2022/05/27 07:00:14;;;;;;;9.20;3.07;;;19.50;78.00;;;;;;5071090;28;20242;-87
2022/05/27 07:02:42;;;;;;;11.43;4.30;;;19.50;77.30;;;;;;5055148;28;20253;-91
2022/05/27 07:05:10;;;;;;;9.43;3.70;;;19.50;77.00;;;;;;5052602;28;20239;-90
2022/05/27 07:07:37;;;;;;;10.90;5.10;;;19.50;76.90;;;;;;5058767;28;20318;-90
2022/05/27 07:10:05;;;;;;;15.73;4.73;;;19.60;77.10;;;;;;5072148;28;20211;-91
2022/05/27 07:12:32;;;;;;;11.80;4.30;;;19.60;77.30;;;;;;5071257;28;20286;-89
2022/05/27 07:14:59;;;;;;;11.73;4.13;;;19.60;77.60;;;;;;5069528;28;20227;-91
2022/05/27 07:17:26;;;;;;;9.70;3.60;;;19.70;77.60;;;;;;5069052;28;20248;-87
2022/05/27 07:19:55;;;;;;;12.23;3.43;;;19.70;76.10;;;;;;5071120;28;20294;-89
2022/05/27 07:22:21;;;;;;;12.70;3.60;;;19.70;75.10;;;;;;5071986;28;20207;-88
2022/05/27 07:24:49;;;;;;;6.77;2.47;;;19.80;75.40;;;;;;5077129;28;20221;-88
2022/05/27 07:27:16;;;;;;;10.33;3.80;;;19.80;75.90;;;;;;5066753;28;20723;-92
2022/05/27 07:29:43;;;;;;;7.97;3.33;;;19.90;74.00;;;;;;5076188;28;20253;-89
2022/05/27 07:32:10;;;;;;;6.57;2.77;;;19.90;73.90;;;;;;5074514;28;20287;-91
2022/05/27 07:34:40;;;;;;;5.07;2.57;;;19.90;73.20;;;;;;5074271;28;20431;-90
2022/05/27 07:37:09;;;;;;;11.13;3.43;;;19.90;72.70;;;;;;5077175;28;20187;-90
2022/05/27 07:39:37;;;;;;;8.20;3.13;;;20.00;73.00;;;;;;5057983;28;20295;-90
2022/05/27 07:42:06;;;;;;;10.27;3.70;;;20.00;72.70;;;;;;5060060;28;20280;-92
2022/05/27 07:44:33;;;;;;;9.97;3.00;;;20.00;71.70;;;;;;5074751;28;20287;-91
2022/05/27 07:47:02;;;;;;;7.53;2.90;;;20.00;71.40;;;;;;5076791;28;20199;-90
2022/05/27 07:49:34;;;;;;;10.27;3.73;;;20.00;71.40;;;;;;5077246;28;20569;-92
2022/05/27 07:52:03;;;;;;;11.00;4.23;;;20.00;70.80;;;;;;5076981;28;20234;-89
2022/05/27 07:54:59;;;;;;;10.10;4.07;;;20.00;71.40;;;;;;5075298;28;20209;-91
2022/05/27 07:57:29;;;;;;;13.87;5.27;;;20.10;71.00;;;;;;5069912;28;20203;-92
2022/05/27 08:00:04;;;;;;;8.77;3.17;;;20.10;70.90;;;;;;5077974;28;20203;-93
2022/05/27 08:02:34;;;;;;;15.53;4.53;;;20.10;70.50;;;;;;5078230;28;20206;-90
2022/05/27 08:05:01;;;;;;;11.10;3.87;;;20.10;70.90;;;;;;5084208;28;20275;-92
2022/05/27 08:07:28;;;;;;;14.30;4.57;;;20.20;70.70;;;;;;5076918;28;20280;-93
2022/05/27 08:09:57;;;;;;;13.77;3.43;;;20.20;70.50;;;;;;5069205;28;20279;-92
2022/05/27 08:12:24;;;;;;;8.57;4.20;;;20.20;69.60;;;;;;5070396;28;20278;-89
2022/05/27 08:14:50;;;;;;;17.10;7.67;;;20.20;69.70;;;;;;5072085;28;20296;-88
2022/05/27 08:17:17;;;;;;;10.90;4.00;;;20.20;69.70;;;;;;5066193;28;20719;-87
2022/05/27 08:19:44;;;;;;;11.67;4.17;;;20.20;69.80;;;;;;5067639;28;20211;-87
2022/05/27 08:22:11;;;;;;;12.90;4.47;;;20.20;68.60;;;;;;5062256;28;20208;-88
2022/05/27 08:24:38;;;;;;;10.07;3.87;;;20.20;68.20;;;;;;5066954;28;20286;-89
2022/05/27 08:27:07;;;;;;;13.80;4.83;;;20.20;67.50;;;;;;5064564;28;20211;-87
2022/05/27 08:29:34;;;;;;;12.70;4.50;;;20.20;67.50;;;;;;5066775;28;20205;-89
2022/05/27 08:32:03;;;;;;;10.33;3.47;;;20.30;67.70;;;;;;5068518;28;20203;-92
2022/05/27 08:40:02;;;;;;;15.93;5.03;;;20.40;66.60;;;;;;5066889;28;20281;-90
2022/05/27 08:42:41;;;;;;;7.60;2.87;;;20.50;65.30;;;;;;5066390;28;20209;-90
2022/05/27 08:45:14;;;;;;;10.03;3.23;;;20.50;64.40;;;;;;5067663;28;20227;-91
2022/05/27 08:47:46;;;;;;;8.80;3.63;;;20.60;64.40;;;;;;5072166;28;20242;-92
2022/05/27 08:50:20;;;;;;;12.30;3.30;;;20.70;63.50;;;;;;5072174;28;20310;-90
2022/05/27 08:52:52;;;;;;;8.63;3.13;;;20.80;62.50;;;;;;5073342;28;20635;-92
2022/05/27 09:01:20;;;;;;;11.37;3.90;;;21.20;61.10;;;;;;5062736;28;20222;-89
2022/05/27 09:03:52;;;;;;;12.83;3.97;;;21.30;60.40;;;;;;5053348;28;20620;-89
2022/05/27 09:06:28;;;;;;;11.00;3.53;;;21.40;60.30;;;;;;5069021;28;20221;-87
2022/05/27 09:08:55;;;;;;;8.23;3.43;;;21.60;59.90;;;;;;5068065;28;20578;-87
2022/05/27 09:11:32;;;;;;;10.07;3.47;;;21.70;59.60;;;;;;5069861;28;20648;-87
2022/05/27 09:14:10;;;;;;;8.60;3.40;;;21.80;59.10;;;;;;5062941;28;20300;-91
2022/05/27 09:16:41;;;;;;;8.57;3.50;;;21.90;59.00;;;;;;5061862;28;20260;-88
2022/05/27 09:19:19;;;;;;;11.13;4.67;;;22.00;59.70;;;;;;5062323;28;20582;-88
2022/05/27 09:21:59;;;;;;;12.10;4.60;;;22.10;59.80;;;;;;5060217;28;20281;-93
2022/05/27 09:24:53;;;;;;;11.30;3.83;;;22.10;60.20;;;;;;5068461;28;20207;-90
2022/05/27 09:27:24;;;;;;;13.03;5.20;;;22.20;58.60;;;;;;5048396;28;20222;-87
2022/05/27 09:29:58;;;;;;;13.40;4.13;;;22.30;59.50;;;;;;5067838;28;20300;-88
2022/05/27 09:32:34;;;;;;;11.67;4.73;;;22.40;58.70;;;;;;5068535;28;20215;-91
2022/05/27 09:35:09;;;;;;;10.23;4.03;;;22.40;58.50;;;;;;5064722;28;20677;-90
2022/05/27 09:37:40;;;;;;;10.20;3.70;;;22.50;59.20;;;;;;5063109;28;20217;-91
2022/05/27 09:40:13;;;;;;;10.40;4.37;;;22.50;58.90;;;;;;5049191;28;20720;-90
2022/05/27 09:42:47;;;;;;;9.07;4.00;;;22.50;58.40;;;;;;5048805;28;20213;-89
2022/05/27 09:45:16;;;;;;;10.40;3.77;;;22.40;59.50;;;;;;5048619;28;20219;-88
2022/05/27 09:47:43;;;;;;;10.67;4.40;;;22.40;59.20;;;;;;5048434;28;20215;-89
2022/05/27 09:50:26;;;;;;;16.17;5.80;;;22.40;59.10;;;;;;5048327;28;20311;-89
2022/05/27 09:52:58;;;;;;;19.13;5.03;;;22.40;56.30;;;;;;5047441;28;20203;-87
2022/05/27 09:55:28;;;;;;;12.43;4.40;;;22.50;57.40;;;;;;5050103;28;20297;-88
2022/05/27 09:57:58;;;;;;;11.93;4.43;;;22.40;56.60;;;;;;5051628;28;20299;-90
2022/05/27 10:00:42;;;;;;;8.63;3.53;;;22.40;56.10;;;;;;5052156;28;20317;-87
2022/05/27 10:03:36;;;;;;;13.10;4.70;;;22.30;55.20;;;;;;5051904;28;20298;-88
2022/05/27 10:06:07;;;;;;;11.20;4.93;;;22.20;55.20;;;;;;5050392;28;20207;-89
2022/05/27 10:08:43;;;;;;;15.33;5.13;;;22.20;55.50;;;;;;5067670;28;20795;-87
2022/05/27 10:11:21;;;;;;;10.97;4.77;;;22.20;55.60;;;;;;5072152;28;20219;-87
2022/05/27 10:14:08;;;;;;;13.30;4.47;;;22.20;55.90;;;;;;5071785;28;20677;-88
2022/05/27 10:16:36;;;;;;;12.83;4.20;;;22.30;55.80;;;;;;5072204;28;20227;-88
2022/05/27 10:19:08;;;;;;;11.03;4.53;;;22.30;55.30;;;;;;5071813;28;20299;-88
2022/05/27 10:21:49;;;;;;;14.87;5.27;;;22.40;55.80;;;;;;5064053;28;20287;-89
2022/05/27 10:24:20;;;;;;;13.03;5.10;;;22.50;55.30;;;;;;5070452;28;20284;-88
2022/05/27 10:27:00;;;;;;;14.27;5.30;;;22.60;54.60;;;;;;5071582;28;20259;-88
2022/05/27 10:29:27;;;;;;;14.20;4.77;;;22.70;55.40;;;;;;5071660;28;20222;-90
2022/05/27 10:31:58;;;;;;;15.10;4.43;;;22.80;55.30;;;;;;5071686;28;20214;-89
2022/05/27 10:34:45;;;;;;;11.03;4.23;;;22.90;54.60;;;;;;5071719;28;20205;-91
2022/05/27 10:37:28;;;;;;;19.00;6.20;;;23.00;54.50;;;;;;5070906;28;20219;-89
2022/05/27 10:40:10;;;;;;;11.57;4.67;;;23.10;53.80;;;;;;5071376;28;20207;-87
2022/05/27 10:42:46;;;;;;;8.17;3.93;;;23.30;53.80;;;;;;5070818;28;20699;-87
2022/05/27 10:45:20;;;;;;;15.97;5.07;;;23.40;53.40;;;;;;5071332;28;20296;-87
2022/05/27 10:48:25;;;;;;;15.93;5.47;;;23.50;53.50;;;;;;5054728;28;20219;-89
2022/05/27 10:51:00;;;;;;;12.03;3.60;;;23.60;51.80;;;;;;5070576;28;20219;-86
2022/05/27 10:53:41;;;;;;;11.43;3.97;;;23.70;53.10;;;;;;5069633;28;20670;-87
2022/05/27 10:56:22;;;;;;;12.23;4.37;;;23.80;50.90;;;;;;5068245;28;20318;-88
2022/05/27 11:02:08;;;;;;;11.10;4.07;;;24.00;51.70;;;;;;5070822;28;20230;-91
2022/05/27 11:05:10;;;;;;;11.73;4.27;;;24.10;51.80;;;;;;5070602;28;20207;-90
2022/05/27 11:07:49;;;;;;;9.17;3.63;;;24.20;50.90;;;;;;5069914;28;20210;-89
2022/05/27 11:10:36;;;;;;;11.97;3.97;;;24.30;51.80;;;;;;5070830;28;20213;-89
2022/05/27 11:16:13;;;;;;;10.77;4.20;;;24.40;51.00;;;;;;5071249;28;20607;-93
2022/05/27 11:18:54;;;;;;;13.63;3.77;;;24.40;50.90;;;;;;5071040;28;20250;-88
2022/05/27 11:21:38;;;;;;;13.90;6.80;;;24.40;50.30;;;;;;5069925;28;20207;-88
2022/05/27 11:24:17;;;;;;;12.07;4.63;;;24.50;50.00;;;;;;5068752;28;20246;-88
2022/05/27 11:26:52;;;;;;;14.13;4.50;;;24.50;50.30;;;;;;5070191;28;20245;-88
2022/05/27 11:29:44;;;;;;;12.07;3.97;;;24.50;50.00;;;;;;5070369;28;20206;-89
2022/05/27 11:32:21;;;;;;;16.50;4.90;;;24.60;49.30;;;;;;5069803;28;20242;-91
2022/05/27 11:35:01;;;;;;;10.23;3.60;;;24.50;49.60;;;;;;5070540;28;20285;-88
2022/05/27 11:37:44;;;;;;;10.63;3.87;;;24.50;48.90;;;;;;5069352;28;20229;-88
2022/05/27 11:40:30;;;;;;;11.43;4.30;;;24.50;49.10;;;;;;5069895;28;20231;-93
2022/05/27 11:43:30;;;;;;;10.13;3.77;;;24.50;48.00;;;;;;5071772;28;20209;-91
2022/05/27 11:46:08;;;;;;;13.33;3.80;;;24.50;47.30;;;;;;5063892;28;20200;-89
2022/05/27 11:48:45;;;;;;;10.60;3.47;;;24.50;47.80;;;;;;5050528;28;20203;-88
2022/05/27 11:51:25;;;;;;;11.10;4.07;;;24.50;48.00;;;;;;5050395;28;20212;-92
2022/05/27 11:54:08;;;;;;;13.73;4.97;;;24.50;47.90;;;;;;5049988;28;20207;-90
2022/05/27 11:56:47;;;;;;;13.47;4.53;;;24.60;48.00;;;;;;5050069;28;20228;-91
2022/05/27 11:59:23;;;;;;;13.10;4.63;;;24.70;47.70;;;;;;5049539;28;20258;-89
2022/05/27 12:01:54;;;;;;;12.33;3.50;;;24.70;47.10;;;;;;5063925;28;20787;-89
2022/05/27 12:04:31;;;;;;;8.83;3.50;;;24.70;48.00;;;;;;5069647;28;20811;-93
2022/05/27 12:07:07;;;;;;;10.73;3.90;;;24.80;47.00;;;;;;5069927;28;20213;-91
2022/05/27 12:09:42;;;;;;;11.53;4.03;;;24.80;48.30;;;;;;5067572;28;20199;-88
2022/05/27 12:12:13;;;;;;;14.30;4.43;;;24.80;46.60;;;;;;5069609;28;20214;-87
2022/05/27 12:14:47;;;;;;;11.50;4.00;;;24.80;47.70;;;;;;5069686;28;20385;-90
2022/05/27 12:17:20;;;;;;;10.83;3.97;;;24.90;47.80;;;;;;5068969;28;20317;-90
2022/05/27 12:19:56;;;;;;;15.83;5.53;;;25.00;47.70;;;;;;5067278;28;20207;-87
2022/05/27 12:22:27;;;;;;;10.73;4.17;;;25.00;46.50;;;;;;5069228;28;20310;-89
2022/05/27 12:24:59;;;;;;;11.13;4.57;;;25.20;46.60;;;;;;5069424;28;20940;-88
2022/05/27 12:27:27;;;;;;;15.13;4.20;;;25.20;46.00;;;;;;5069327;28;20761;-87
2022/05/27 12:29:55;;;;;;;17.30;4.00;;;25.30;46.20;;;;;;5068592;28;20685;-91
2022/05/27 12:32:26;;;;;;;12.40;4.00;;;25.30;45.90;;;;;;5069138;28;20187;-88
2022/05/27 12:35:19;;;;;;;11.03;4.03;;;25.30;45.80;;;;;;5068878;28;20252;-87
2022/05/27 12:37:51;;;;;;;10.37;4.30;;;25.40;45.30;;;;;;5069282;28;20239;-92
2022/05/27 12:40:27;;;;;;;126.27;12.13;;;25.40;45.00;;;;;;5069218;28;20310;-89
2022/05/27 12:42:56;;;;;;;12.17;4.97;;;25.40;44.20;;;;;;5068187;28;20187;-88
2022/05/27 12:45:39;;;;;;;11.33;4.50;;;25.40;44.00;;;;;;5064998;28;20730;-87
2022/05/27 12:48:08;;;;;;;35.73;5.30;;;25.40;43.70;;;;;;5069146;28;20329;-91
2022/05/27 12:50:39;;;;;;;13.83;4.97;;;25.40;44.80;;;;;;5068712;28;20213;-89
2022/05/27 12:53:19;;;;;;;11.17;4.00;;;25.40;44.20;;;;;;5068561;28;20334;-88
2022/05/27 13:01:43;;;;;;;10.07;4.00;;;25.50;44.10;;;;;;5068385;28;20207;-89
2022/05/27 13:04:44;;;;;;;10.77;4.17;;;25.50;43.50;;;;;;5068407;28;20556;-88
2022/05/27 13:07:12;;;;;;;13.27;4.07;;;25.50;41.80;;;;;;5067940;28;20207;-88
2022/05/27 13:09:43;;;;;;;11.43;3.90;;;25.60;43.10;;;;;;5066669;28;20225;-94
2022/05/27 13:12:32;;;;;;;12.03;4.30;;;25.60;42.90;;;;;;5068880;28;20306;-89
2022/05/27 13:15:10;;;;;;;115.03;13.83;;;25.60;43.40;;;;;;5068854;28;20203;-90
2022/05/27 13:17:43;;;;;;;12.53;4.00;;;25.60;42.40;;;;;;5068000;28;20230;-92
2022/05/27 13:20:22;;;;;;;10.93;3.77;;;25.70;42.30;;;;;;5068870;28;20250;-89
2022/05/27 13:23:04;;;;;;;28.57;5.27;;;25.70;42.00;;;;;;5068349;28;20207;-91
2022/05/27 13:25:33;;;;;;;11.60;4.30;;;25.80;42.40;;;;;;5068472;28;20241;-90
2022/05/27 13:28:04;;;;;;;12.53;3.80;;;25.90;42.40;;;;;;5070009;28;20246;-91
2022/05/27 13:30:57;;;;;;;6.70;2.97;;;25.90;42.50;;;;;;5070234;28;20211;-96
2022/05/27 13:33:28;;;;;;;13.03;3.93;;;26.00;41.30;;;;;;5069053;28;20317;-94
2022/05/27 13:35:56;;;;;;;14.57;8.23;;;26.00;41.90;;;;;;5063541;28;20557;-89
2022/05/27 13:38:29;;;;;;;12.77;4.97;;;26.10;42.10;;;;;;5060258;28;20230;-92
2022/05/27 13:40:58;;;;;;;15.07;5.50;;;26.10;41.20;;;;;;5058183;28;20231;-91